Time;durP1;ratioP1;P1;durP2;ratioP2;P2;SDS_P1;SDS_P2;PMS_P1;PMS_P2;Temp;Humidity;BMP_temperature;BMP_pressure;BME280_temperature;BME280_humidity;BME280_pressure;Samples;Min_cycle;Max_cycle;Signal;HPM_P1;HPM_P2
2024/03/13 00:01:55;;;;;;;49.97;46.03;;;;;;;5.94;100.00;100495.75;5047958;28;20041;-69
2024/03/13 00:04:22;;;;;;;48.95;45.40;;;;;;;6.25;100.00;100495.56;5046888;28;20842;-70
2024/03/13 00:06:50;;;;;;;48.15;44.35;;;;;;;5.98;100.00;100497.00;5052934;28;20048;-70
2024/03/13 00:09:20;;;;;;;46.53;42.33;;;;;;;6.04;100.00;100492.81;5047097;28;20047;-69
2024/03/13 00:11:47;;;;;;;45.20;41.47;;;;;;;5.86;100.00;100493.97;5047827;28;20045;-69
2024/03/13 00:14:16;;;;;;;44.38;41.17;;;;;;;5.96;100.00;100485.81;5043946;28;20060;-69
2024/03/13 00:16:44;;;;;;;48.47;44.70;;;;;;;5.77;100.00;100486.31;5049189;28;20500;-69
2024/03/13 00:19:11;;;;;;;41.15;37.95;;;;;;;5.41;100.00;100477.25;5047850;28;20053;-69
2024/03/13 00:21:40;;;;;;;40.65;37.63;;;;;;;5.67;100.00;100481.31;5045629;28;20111;-69
2024/03/13 00:24:07;;;;;;;44.22;41.03;;;;;;;5.71;100.00;100477.31;5048966;28;20056;-70
2024/03/13 00:26:36;;;;;;;50.38;46.58;;;;;;;5.73;100.00;100481.41;5048671;28;20056;-69
2024/03/13 00:29:04;;;;;;;48.78;45.03;;;;;;;5.46;100.00;100488.06;5045234;28;20084;-69
2024/03/13 00:31:31;;;;;;;42.00;38.90;;;;;;;5.59;100.00;100486.66;5045966;28;20044;-69
2024/03/13 00:33:59;;;;;;;41.05;37.85;;;;;;;5.68;100.00;100482.94;5046447;28;20052;-69
2024/03/13 00:36:26;;;;;;;43.00;39.60;;;;;;;5.47;100.00;100483.63;5047626;28;20050;-69
2024/03/13 00:38:53;;;;;;;44.92;41.38;;;;;;;5.50;100.00;100476.19;5048111;28;20559;-70
2024/03/13 00:41:20;;;;;;;46.58;42.92;;;;;;;5.67;100.00;100476.84;5044759;28;20176;-69
2024/03/13 00:43:48;;;;;;;39.72;36.53;;;;;;;5.34;100.00;100478.97;5047862;28;20508;-69
2024/03/13 00:46:15;;;;;;;43.78;40.42;;;;;;;5.44;100.00;100479.53;5046961;28;20059;-69
2024/03/13 00:48:42;;;;;;;43.75;40.35;;;;;;;5.05;100.00;100480.50;5046642;28;20056;-69
2024/03/13 00:51:10;;;;;;;43.88;40.47;;;;;;;5.41;100.00;100479.06;5044273;28;20501;-69
2024/03/13 00:53:38;;;;;;;48.47;45.00;;;;;;;5.47;100.00;100484.44;5046617;28;20053;-69
2024/03/13 00:56:06;;;;;;;46.67;43.28;;;;;;;5.66;100.00;100475.22;5042462;28;20049;-71
2024/03/13 00:58:34;;;;;;;44.15;40.30;;;;;;;5.90;100.00;100481.22;5046092;28;20049;-71
2024/03/13 01:01:02;;;;;;;44.70;41.00;;;;;;;6.03;100.00;100472.75;5048744;28;20053;-71
2024/03/13 01:03:29;;;;;;;43.70;40.30;;;;;;;6.08;100.00;100473.84;5049053;28;20087;-72
2024/03/13 01:05:58;;;;;;;46.00;42.40;;;;;;;6.15;100.00;100473.91;5048410;28;20044;-71
2024/03/13 01:08:25;;;;;;;48.35;44.65;;;;;;;6.11;100.00;100468.19;5047697;28;20052;-71
2024/03/13 01:10:53;;;;;;;59.80;55.30;;;;;;;6.13;100.00;100471.44;5046058;28;20088;-71
2024/03/13 01:13:21;;;;;;;55.22;51.05;;;;;;;6.21;100.00;100454.72;5048759;28;20052;-71
2024/03/13 01:15:49;;;;;;;57.22;52.47;;;;;;;6.30;100.00;100463.34;5037901;28;20131;-71
2024/03/13 01:18:19;;;;;;;51.78;47.78;;;;;;;6.36;100.00;100462.63;5048299;28;20087;-71
2024/03/13 01:20:48;;;;;;;53.05;48.75;;;;;;;6.02;100.00;100460.53;5047936;28;20076;-71
2024/03/13 01:23:15;;;;;;;58.38;53.65;;;;;;;6.16;100.00;100457.09;5048271;28;20107;-71
2024/03/13 01:25:45;;;;;;;53.50;49.40;;;;;;;6.13;100.00;100453.00;5047785;28;20106;-71
2024/03/13 01:28:12;;;;;;;51.55;47.28;;;;;;;6.21;100.00;100452.09;5047891;28;20053;-70
2024/03/13 01:30:39;;;;;;;54.90;50.42;;;;;;;6.33;100.00;100447.97;5045343;28;20056;-69
2024/03/13 01:33:08;;;;;;;52.83;48.83;;;;;;;6.31;100.00;100449.97;5046003;28;20063;-69
2024/03/13 01:35:37;;;;;;;51.92;47.72;;;;;;;6.34;100.00;100454.06;5045481;28;20053;-71
2024/03/13 01:38:03;;;;;;;57.72;53.03;;;;;;;6.34;100.00;100454.06;5047524;28;20085;-71
2024/03/13 01:55:06;;;;;;;52.70;48.63;;;;;;;6.75;100.00;100433.22;5033566;28;20048;-71
2024/03/13 01:57:45;;;;;;;56.63;51.95;;;;;;;6.67;100.00;100425.41;5041247;28;20132;-71
2024/03/13 02:03:03;;;;;;;57.50;52.88;;;;;;;6.67;100.00;100428.06;5048184;28;20132;-71
2024/03/13 02:05:30;;;;;;;54.42;50.25;;;;;;;6.51;100.00;100426.47;5046721;28;20463;-70
2024/03/13 02:07:59;;;;;;;56.28;51.83;;;;;;;6.70;100.00;100426.88;5045119;28;20040;-69
2024/03/13 02:10:26;;;;;;;56.97;52.35;;;;;;;6.66;100.00;100421.16;5044682;28;20045;-69
2024/03/13 02:13:09;;;;;;;57.95;53.55;;;;;;;6.48;100.00;100416.28;5045754;28;20053;-70
2024/03/13 02:15:36;;;;;;;56.97;52.50;;;;;;;7.10;100.00;100415.66;5043175;28;20045;-72
2024/03/13 02:18:18;;;;;;;60.80;55.60;;;;;;;6.52;100.00;100417.53;5043721;28;20421;-70
2024/03/13 02:20:46;;;;;;;61.70;56.80;;;;;;;6.72;100.00;100428.31;5042868;28;20056;-69
2024/03/13 02:23:24;;;;;;;60.30;55.50;;;;;;;6.76;100.00;100426.94;5044654;28;20475;-68
2024/03/13 02:25:52;;;;;;;63.92;58.95;;;;;;;6.66;100.00;100423.78;5041056;28;20102;-69
2024/03/13 02:28:19;;;;;;;56.50;51.97;;;;;;;6.67;100.00;100427.25;5023598;28;20057;-71
2024/03/13 02:30:47;;;;;;;63.08;58.20;;;;;;;6.74;100.00;100431.56;5042480;28;20089;-71
2024/03/13 02:33:14;;;;;;;61.90;57.08;;;;;;;6.77;100.00;100425.91;5029632;28;20068;-69
2024/03/13 02:35:43;;;;;;;63.08;57.85;;;;;;;6.84;100.00;100429.47;5028452;28;20053;-69
2024/03/13 02:38:10;;;;;;;63.65;58.25;;;;;;;6.97;100.00;100418.19;5026947;28;20053;-69
2024/03/13 02:40:37;;;;;;;66.05;61.03;;;;;;;6.91;100.00;100421.59;5025819;28;20118;-70
2024/03/13 02:43:04;;;;;;;67.32;61.72;;;;;;;6.88;100.00;100421.97;5027417;28;20055;-69
2024/03/13 02:45:32;;;;;;;62.88;57.97;;;;;;;7.03;100.00;100422.72;5027060;28;20084;-69
2024/03/13 02:47:59;;;;;;;66.57;61.38;;;;;;;7.04;100.00;100418.25;5023095;28;20055;-69
2024/03/13 02:50:26;;;;;;;72.38;66.88;;;;;;;7.10;100.00;100426.22;5025527;28;20059;-69
2024/03/13 02:52:54;;;;;;;75.68;70.07;;;;;;;7.14;100.00;100426.69;5028517;28;20084;-69
2024/03/13 02:55:21;;;;;;;66.25;61.15;;;;;;;7.15;100.00;100423.03;5027564;28;20103;-69
2024/03/13 02:57:49;;;;;;;64.43;59.40;;;;;;;7.14;100.00;100428.50;5025905;28;20126;-69
2024/03/13 03:00:17;;;;;;;63.50;58.50;;;;;;;7.26;100.00;100421.69;5028494;28;20119;-71
2024/03/13 03:02:44;;;;;;;80.53;74.35;;;;;;;7.30;100.00;100426.41;5029345;28;20049;-69
2024/03/13 03:05:11;;;;;;;67.72;62.33;;;;;;;7.24;100.00;100416.59;5026374;28;20141;-70
2024/03/13 03:07:38;;;;;;;69.80;64.50;;;;;;;7.44;100.00;100418.56;5025893;28;20103;-70
2024/03/13 03:10:05;;;;;;;76.47;70.97;;;;;;;7.31;100.00;100414.81;5028204;28;20083;-70
2024/03/13 03:12:32;;;;;;;68.60;62.97;;;;;;;7.49;100.00;100418.81;5031458;28;20107;-71
2024/03/13 03:15:01;;;;;;;66.13;60.92;;;;;;;7.56;100.00;100419.66;5032249;28;20122;-71
2024/03/13 03:17:28;;;;;;;69.47;64.13;;;;;;;7.57;100.00;100413.38;5033265;28;20131;-71
2024/03/13 03:19:56;;;;;;;77.13;71.38;;;;;;;7.56;100.00;100411.72;5032559;28;20061;-71
2024/03/13 03:22:22;;;;;;;88.60;82.10;;;;;;;7.55;100.00;100410.13;5035715;28;20049;-71
2024/03/13 03:24:49;;;;;;;94.65;87.53;;;;;;;7.42;100.00;100405.56;5030818;28;20044;-71
2024/03/13 03:27:16;;;;;;;94.53;87.35;;;;;;;7.48;100.00;100407.44;5030635;28;20106;-71
2024/03/13 03:29:43;;;;;;;85.05;78.65;;;;;;;7.50;100.00;100412.50;5036454;28;20106;-71
2024/03/13 03:32:10;;;;;;;93.22;86.22;;;;;;;7.58;100.00;100409.72;5034191;28;20079;-71
2024/03/13 03:34:39;;;;;;;83.25;76.82;;;;;;;7.73;100.00;100413.06;5034507;28;20052;-71
2024/03/13 03:37:07;;;;;;;100.88;93.63;;;;;;;7.63;100.00;100409.16;5032656;28;20123;-71
2024/03/13 03:39:34;;;;;;;77.38;71.32;;;;;;;7.62;100.00;100405.69;5033712;28;20056;-71
2024/03/13 03:42:02;;;;;;;87.35;80.68;;;;;;;7.50;100.00;100410.72;5030845;28;20042;-71
2024/03/13 03:44:30;;;;;;;85.60;79.22;;;;;;;7.48;100.00;100409.25;5031961;28;20049;-71
2024/03/13 03:46:57;;;;;;;72.07;66.28;;;;;;;7.38;100.00;100411.41;5031278;28;20086;-71
2024/03/13 03:49:24;;;;;;;84.43;77.68;;;;;;;7.34;100.00;100416.25;5031352;28;20492;-71
2024/03/13 03:51:51;;;;;;;98.38;91.05;;;;;;;7.35;100.00;100412.59;5030277;28;20484;-71
2024/03/13 03:54:21;;;;;;;79.75;73.03;;;;;;;7.38;100.00;100420.16;5031875;28;20049;-71
2024/03/13 03:56:48;;;;;;;88.53;81.78;;;;;;;7.51;100.00;100417.63;5029469;28;20509;-71
2024/03/13 03:59:15;;;;;;;67.10;61.50;;;;;;;7.47;100.00;100416.34;5029941;28;20496;-71
2024/03/13 04:01:43;;;;;;;70.95;65.25;;;;;;;7.55;100.00;100420.69;5031454;28;20049;-71
2024/03/13 04:04:13;;;;;;;73.03;67.30;;;;;;;7.63;100.00;100414.44;5026527;28;20775;-71
2024/03/13 04:06:41;;;;;;;74.07;68.22;;;;;;;7.61;100.00;100413.81;5032433;28;20048;-71
2024/03/13 04:09:15;;;;;;;75.63;69.30;;;;;;;7.65;100.00;100409.75;5027957;28;20134;-71
2024/03/13 04:11:43;;;;;;;69.53;63.92;;;;;;;7.40;100.00;100401.47;5025491;28;20047;-71
2024/03/13 04:14:10;;;;;;;65.88;60.47;;;;;;;7.49;100.00;100403.75;5031088;28;20087;-71
2024/03/13 04:16:38;;;;;;;61.95;56.63;;;;;;;7.56;100.00;100409.94;5031909;28;20045;-70
2024/03/13 04:19:06;;;;;;;62.15;57.00;;;;;;;7.58;100.00;100399.16;5028921;28;20071;-70
2024/03/13 04:21:33;;;;;;;61.72;55.85;;;;;;;7.34;100.00;100401.22;5029984;28;20441;-70
2024/03/13 04:24:00;;;;;;;64.43;55.78;;;;;;;7.48;100.00;100406.63;5028654;28;20044;-70
2024/03/13 04:26:29;;;;;;;64.90;59.38;;;;;;;7.46;100.00;100405.97;5029986;28;20111;-69
2024/03/13 04:28:58;;;;;;;67.35;60.90;;;;;;;7.47;100.00;100411.06;5025672;28;20052;-70
2024/03/13 04:31:26;;;;;;;64.18;58.75;;;;;;;7.53;100.00;100402.38;5029952;28;20138;-70
2024/03/13 04:33:53;;;;;;;60.88;55.17;;;;;;;7.63;100.00;100417.91;5028725;28;20061;-71
2024/03/13 04:36:21;;;;;;;53.45;48.85;;;;;;;7.70;100.00;100416.09;5032260;28;20045;-71
2024/03/13 04:38:54;;;;;;;54.30;49.80;;;;;;;7.68;100.00;100418.13;5032169;28;20087;-71
2024/03/13 04:41:22;;;;;;;60.55;55.35;;;;;;;7.77;100.00;100421.44;5026019;28;20099;-72
2024/03/13 04:43:52;;;;;;;59.70;54.92;;;;;;;8.09;100.00;100421.81;5031740;28;20056;-70
2024/03/13 04:46:19;;;;;;;56.35;51.45;;;;;;;7.83;100.00;100417.19;5028847;28;20063;-70
2024/03/13 04:48:46;;;;;;;59.42;54.40;;;;;;;8.27;100.00;100420.25;5029492;28;20061;-70
2024/03/13 04:51:14;;;;;;;55.70;51.08;;;;;;;8.06;100.00;100425.66;5027938;28;20049;-70
2024/03/13 04:53:43;;;;;;;58.50;53.90;;;;;;;8.17;100.00;100421.63;5031767;28;20053;-70
2024/03/13 04:56:11;;;;;;;61.60;56.70;;;;;;;8.11;100.00;100428.53;5032133;28;20052;-70
2024/03/13 04:58:38;;;;;;;68.75;63.42;;;;;;;8.10;100.00;100426.88;5027371;28;20081;-70
2024/03/13 05:01:07;;;;;;;65.28;60.17;;;;;;;8.23;100.00;100424.31;5029013;28;20045;-70
2024/03/13 05:03:35;;;;;;;72.57;67.05;;;;;;;8.03;100.00;100428.69;5027371;28;20122;-70
2024/03/13 05:06:02;;;;;;;69.30;64.05;;;;;;;8.19;100.00;100428.34;5028967;28;20056;-70
2024/03/13 05:08:29;;;;;;;60.03;55.22;;;;;;;8.14;100.00;100427.31;5027971;28;20481;-70
2024/03/13 05:10:57;;;;;;;65.10;59.80;;;;;;;8.33;100.00;100431.06;5028252;28;20057;-70
2024/03/13 05:13:24;;;;;;;64.40;59.22;;;;;;;8.47;100.00;100435.41;5026772;28;20421;-70
2024/03/13 05:15:51;;;;;;;72.30;66.57;;;;;;;8.49;100.00;100420.16;5028069;28;20053;-70
2024/03/13 05:18:19;;;;;;;67.15;61.35;;;;;;;8.41;100.00;100422.97;5027875;28;20859;-70
2024/03/13 05:20:46;;;;;;;71.07;65.07;;;;;;;8.32;100.00;100413.53;5033185;28;20061;-70
2024/03/13 05:23:13;;;;;;;69.78;63.88;;;;;;;8.67;100.00;100417.75;5031573;28;20137;-71
2024/03/13 05:25:40;;;;;;;65.40;59.90;;;;;;;8.56;100.00;100426.25;5027681;28;20048;-70
2024/03/13 05:28:07;;;;;;;66.25;60.75;;;;;;;8.64;100.00;100428.75;5027237;28;20115;-70
2024/03/13 05:30:34;;;;;;;78.85;72.75;;;;;;;9.04;100.00;100433.28;5029850;28;20063;-70
2024/03/13 05:33:02;;;;;;;67.07;61.88;;;;;;;8.55;100.00;100429.13;5028635;28;20053;-70
2024/03/13 05:35:29;;;;;;;69.25;63.75;;;;;;;8.74;100.00;100431.00;5026927;28;20778;-70
2024/03/13 05:37:58;;;;;;;69.20;63.78;;;;;;;8.64;100.00;100438.53;5029048;28;20122;-70
2024/03/13 05:40:25;;;;;;;66.35;60.75;;;;;;;8.57;100.00;100435.06;5026773;28;20550;-69
2024/03/13 05:42:51;;;;;;;61.85;56.75;;;;;;;8.31;100.00;100433.91;5029329;28;20130;-69
2024/03/13 05:45:19;;;;;;;64.65;59.35;;;;;;;8.20;100.00;100443.22;5028860;28;20057;-70
2024/03/13 05:47:46;;;;;;;67.82;62.40;;;;;;;8.37;100.00;100440.22;5027421;28;20064;-71
2024/03/13 05:50:17;;;;;;;63.45;58.55;;;;;;;8.44;100.00;100441.09;5026920;28;20056;-71
2024/03/13 05:52:45;;;;;;;68.72;63.53;;;;;;;8.48;100.00;100445.81;5033046;28;20144;-70
2024/03/13 05:55:12;;;;;;;71.32;65.65;;;;;;;8.54;100.00;100446.03;5030842;28;20160;-71
2024/03/13 05:57:39;;;;;;;61.42;56.58;;;;;;;8.79;100.00;100448.94;5029026;28;20075;-70
2024/03/13 06:00:09;;;;;;;61.30;56.50;;;;;;;8.81;100.00;100449.56;5028753;28;20578;-70
2024/03/13 06:02:36;;;;;;;54.72;50.25;;;;;;;9.14;100.00;100445.13;5037422;28;20057;-71
2024/03/13 06:05:09;;;;;;;59.92;55.22;;;;;;;8.43;100.00;100452.72;5028515;28;20048;-71
2024/03/13 06:07:37;;;;;;;58.33;53.92;;;;;;;8.37;100.00;100450.81;5021815;28;20057;-70
2024/03/13 06:10:05;;;;;;;61.55;56.63;;;;;;;9.19;100.00;100449.81;5029126;28;20048;-70
2024/03/13 06:12:33;;;;;;;61.10;56.47;;;;;;;8.34;100.00;100454.66;5025076;28;20056;-70
2024/03/13 06:15:02;;;;;;;54.92;50.72;;;;;;;8.82;100.00;100459.13;5028100;28;20749;-70
2024/03/13 06:17:29;;;;;;;61.70;56.90;;;;;;;9.22;100.00;100461.84;5028661;28;20133;-70
2024/03/13 06:19:57;;;;;;;59.10;54.70;;;;;;;8.77;100.00;100457.06;5027894;28;20508;-70
2024/03/13 06:22:24;;;;;;;64.82;60.03;;;;;;;8.68;100.00;100467.06;5027089;28;20445;-70
2024/03/13 06:24:51;;;;;;;60.25;55.67;;;;;;;8.82;100.00;100467.91;5026508;28;20102;-70
2024/03/13 06:27:27;;;;;;;62.22;57.72;;;;;;;8.83;100.00;100464.22;5016926;28;20057;-70
2024/03/13 06:29:57;;;;;;;61.25;56.78;;;;;;;8.58;100.00;100466.59;5027389;28;20127;-69
2024/03/13 06:32:25;;;;;;;65.32;60.55;;;;;;;8.44;100.00;100470.22;5024053;28;20076;-69
2024/03/13 06:34:54;;;;;;;60.50;55.80;;;;;;;8.81;100.00;100473.41;5031627;28;20049;-70
2024/03/13 06:37:22;;;;;;;65.40;60.40;;;;;;;9.11;100.00;100471.22;5028087;28;20047;-70
2024/03/13 06:39:49;;;;;;;55.38;50.88;;;;;;;8.64;100.00;100471.09;5025908;28;20963;-70
2024/03/13 06:42:16;;;;;;;57.67;53.20;;;;;;;8.30;100.00;100477.25;5025127;28;20061;-70
2024/03/13 06:44:43;;;;;;;71.38;65.88;;;;;;;8.10;100.00;100469.22;5025197;28;20106;-70
2024/03/13 06:47:11;;;;;;;66.25;61.08;;;;;;;8.39;100.00;100470.81;5025786;28;20047;-69
2024/03/13 06:49:38;;;;;;;64.45;59.35;;;;;;;8.52;100.00;100475.34;5026269;28;20049;-69
2024/03/13 06:52:05;;;;;;;64.95;59.90;;;;;;;8.03;100.00;100477.13;5031687;28;20495;-69
2024/03/13 06:54:32;;;;;;;74.07;68.07;;;;;;;8.72;100.00;100472.78;5030565;28;20052;-69
2024/03/13 06:56:59;;;;;;;60.22;55.42;;;;;;;8.24;100.00;100472.75;5031721;28;20784;-70
2024/03/13 06:59:26;;;;;;;68.40;63.10;;;;;;;8.47;100.00;100477.75;5027247;28;20106;-69
2024/03/13 07:01:55;;;;;;;70.55;65.15;;;;;;;9.23;100.00;100482.00;5030617;28;20053;-69
2024/03/13 07:04:23;;;;;;;60.83;55.97;;;;;;;8.64;100.00;100479.03;5033842;28;20056;-69
2024/03/13 07:06:56;;;;;;;60.90;55.92;;;;;;;8.65;100.00;100482.50;5028541;28;20060;-69
2024/03/13 07:09:23;;;;;;;63.00;58.00;;;;;;;8.54;100.00;100485.75;5031709;28;20053;-70
2024/03/13 07:11:51;;;;;;;64.90;59.80;;;;;;;9.43;100.00;100497.94;5027909;28;20061;-70
2024/03/13 07:14:18;;;;;;;58.17;53.58;;;;;;;8.81;100.00;100505.19;5029808;28;20053;-70
2024/03/13 07:16:45;;;;;;;57.03;52.63;;;;;;;9.18;100.00;100501.19;5029174;28;20052;-69
2024/03/13 07:19:13;;;;;;;58.65;54.15;;;;;;;8.57;100.00;100509.16;5025617;28;20087;-70
2024/03/13 07:21:40;;;;;;;63.08;58.08;;;;;;;8.47;100.00;100515.66;5031348;28;20049;-69
2024/03/13 07:24:11;;;;;;;65.88;60.78;;;;;;;8.93;100.00;100511.53;5031304;28;20072;-70
2024/03/13 07:26:39;;;;;;;64.40;59.47;;;;;;;9.26;100.00;100516.06;5029348;28;20512;-69
2024/03/13 07:29:06;;;;;;;65.13;60.25;;;;;;;8.81;100.00;100513.13;5028473;28;20150;-70
2024/03/13 07:31:33;;;;;;;57.35;52.90;;;;;;;8.55;100.00;100519.94;5031430;28;20049;-69
2024/03/13 07:34:00;;;;;;;67.75;62.63;;;;;;;8.81;100.00;100516.59;5031656;28;20508;-70
2024/03/13 07:36:27;;;;;;;72.05;66.75;;;;;;;8.99;100.00;100520.53;5027801;28;20045;-70
2024/03/13 07:38:55;;;;;;;55.70;51.30;;;;;;;9.23;100.00;100516.47;5029651;28;20151;-70
2024/03/13 07:41:22;;;;;;;55.47;51.17;;;;;;;8.55;100.00;100519.13;5029911;28;20052;-70
2024/03/13 07:43:49;;;;;;;60.85;56.22;;;;;;;8.58;100.00;100519.53;5030903;28;20052;-70
2024/03/13 07:46:16;;;;;;;69.70;63.72;;;;;;;8.57;100.00;100520.56;5030680;28;20767;-69
2024/03/13 07:48:43;;;;;;;68.80;63.40;;;;;;;8.76;100.00;100521.66;5032688;28;20052;-70
2024/03/13 07:51:11;;;;;;;63.10;58.13;;;;;;;8.69;100.00;100516.34;5033452;28;20060;-70
2024/03/13 07:53:38;;;;;;;67.30;61.90;;;;;;;9.21;100.00;100524.63;5030936;28;20053;-70
2024/03/13 07:56:06;;;;;;;68.20;62.92;;;;;;;9.02;100.00;100526.22;5031700;28;20107;-70
2024/03/13 07:58:33;;;;;;;64.28;59.28;;;;;;;8.99;100.00;100526.63;5028408;28;20048;-70
2024/03/13 08:01:01;;;;;;;62.35;57.40;;;;;;;9.42;100.00;100523.63;5027821;28;20048;-71
2024/03/13 08:03:28;;;;;;;62.85;57.97;;;;;;;8.93;100.00;100524.78;5030806;28;20053;-70
2024/03/13 08:05:55;;;;;;;64.10;59.10;;;;;;;8.93;100.00;100524.78;5030227;28;20799;-69
2024/03/13 08:08:22;;;;;;;76.82;71.13;;;;;;;9.07;100.00;100525.63;5031810;28;20049;-69
2024/03/13 08:10:50;;;;;;;63.08;57.97;;;;;;;8.52;100.00;100527.47;5030977;28;20076;-71
2024/03/13 08:13:17;;;;;;;64.70;59.50;;;;;;;8.97;100.00;100527.84;5031733;28;20045;-69
2024/03/13 08:15:44;;;;;;;71.63;66.13;;;;;;;9.05;100.00;100525.81;5032189;28;20110;-72
2024/03/13 08:18:15;;;;;;;73.32;67.65;;;;;;;8.88;100.00;100528.00;5031042;28;20040;-72
2024/03/13 08:20:42;;;;;;;69.15;63.55;;;;;;;9.10;100.00;100531.31;5029327;28;20053;-71
2024/03/13 08:23:10;;;;;;;65.68;60.28;;;;;;;8.78;100.00;100530.22;5028110;28;20111;-70
2024/03/13 08:25:37;;;;;;;70.85;65.38;;;;;;;8.77;100.00;100525.13;5026009;28;20084;-70
2024/03/13 08:28:07;;;;;;;71.25;65.55;;;;;;;9.41;100.00;100529.97;5029898;28;20102;-69
2024/03/13 08:30:34;;;;;;;68.97;63.47;;;;;;;9.74;100.00;100529.97;5027842;28;20052;-71
2024/03/13 08:33:01;;;;;;;64.40;59.30;;;;;;;9.23;100.00;100538.50;5030110;28;20064;-69
2024/03/13 08:35:29;;;;;;;74.90;69.13;;;;;;;9.13;100.00;100538.06;5027294;28;20056;-69
2024/03/13 08:37:59;;;;;;;72.57;66.68;;;;;;;8.93;100.00;100540.66;5029983;28;20128;-71
2024/03/13 08:40:28;;;;;;;68.25;62.65;;;;;;;9.04;100.00;100537.41;5025777;28;20041;-69
2024/03/13 08:42:55;;;;;;;78.50;72.30;;;;;;;9.10;100.00;100535.81;5028097;28;20057;-69
2024/03/13 08:45:22;;;;;;;77.20;71.30;;;;;;;8.55;100.00;100541.13;5030291;28;20049;-70
2024/03/13 08:47:49;;;;;;;80.10;73.90;;;;;;;9.09;100.00;100540.28;5025558;28;20052;-70
2024/03/13 08:50:16;;;;;;;84.85;78.28;;;;;;;9.10;100.00;100538.47;5030116;28;20053;-69
2024/03/13 08:52:43;;;;;;;91.22;84.45;;;;;;;8.95;100.00;100538.63;5030759;28;20060;-69
2024/03/13 08:55:10;;;;;;;81.57;75.22;;;;;;;8.95;100.00;100543.91;5029390;28;20527;-69
2024/03/13 08:57:37;;;;;;;85.50;78.90;;;;;;;8.94;100.00;100545.75;5030828;28;20440;-69
2024/03/13 09:00:05;;;;;;;92.88;85.97;;;;;;;9.30;100.00;100541.16;5029435;28;20057;-69
2024/03/13 09:02:32;;;;;;;89.55;82.88;;;;;;;9.66;100.00;100543.44;5027556;28;20422;-70
2024/03/13 09:04:59;;;;;;;76.25;70.07;;;;;;;8.98;100.00;100545.34;5029395;28;20064;-70
2024/03/13 09:07:30;;;;;;;86.63;80.03;;;;;;;9.29;100.00;100543.00;5029462;28;20091;-70
2024/03/13 09:09:58;;;;;;;90.72;83.72;;;;;;;9.34;100.00;100545.03;5026580;28;20137;-70
2024/03/13 09:12:24;;;;;;;84.65;77.95;;;;;;;9.37;100.00;100540.13;5028749;28;20056;-69
2024/03/13 09:14:51;;;;;;;76.53;70.28;;;;;;;9.34;100.00;100543.19;5028586;28;20057;-69
2024/03/13 09:17:18;;;;;;;82.38;75.97;;;;;;;9.03;100.00;100543.75;5029579;28;20053;-69
2024/03/13 09:19:49;;;;;;;93.38;86.47;;;;;;;9.82;100.00;100543.00;5028438;28;20053;-69
2024/03/13 09:22:18;;;;;;;77.82;71.57;;;;;;;10.02;100.00;100548.31;5027567;28;20527;-70
2024/03/13 09:24:45;;;;;;;81.15;74.85;;;;;;;9.26;100.00;100539.91;5030415;28;20078;-70
2024/03/13 09:27:12;;;;;;;90.82;84.07;;;;;;;9.24;100.00;100541.97;5028612;28;20114;-70
2024/03/13 09:29:39;;;;;;;86.95;80.22;;;;;;;10.39;100.00;100535.41;5023912;28;20053;-69
2024/03/13 09:32:06;;;;;;;85.85;79.25;;;;;;;10.36;100.00;100538.47;5027930;28;20820;-69
2024/03/13 09:34:33;;;;;;;80.00;73.70;;;;;;;10.09;100.00;100532.38;5027833;28;20505;-69
2024/03/13 09:37:04;;;;;;;82.05;75.88;;;;;;;9.86;100.00;100533.66;5012528;28;20049;-69
2024/03/13 09:39:31;;;;;;;80.95;74.35;;;;;;;10.07;100.00;100539.72;5027936;28;20501;-69
2024/03/13 09:41:58;;;;;;;97.72;90.15;;;;;;;10.59;100.00;100540.66;5029212;28;20142;-70
2024/03/13 09:44:25;;;;;;;103.45;95.85;;;;;;;11.02;100.00;100533.91;5029128;28;20067;-69
2024/03/13 09:46:52;;;;;;;96.10;89.05;;;;;;;10.80;100.00;100536.84;5029678;28;20122;-69
2024/03/13 09:49:20;;;;;;;78.82;71.68;;;;;;;11.00;100.00;100531.47;5027781;28;20933;-69
2024/03/13 09:51:47;;;;;;;81.90;75.45;;;;;;;10.89;100.00;100532.13;5027402;28;20432;-69
2024/03/13 09:54:14;;;;;;;92.10;85.53;;;;;;;10.89;100.00;100535.63;5029193;28;20111;-69
2024/03/13 09:56:41;;;;;;;109.30;101.57;;;;;;;11.04;100.00;100524.69;5026563;28;20501;-69
2024/03/13 09:59:09;;;;;;;92.15;86.07;;;;;;;11.57;100.00;100520.84;5026145;28;20049;-69
2024/03/13 10:01:37;;;;;;;90.75;85.05;;;;;;;11.30;100.00;100509.59;5027747;28;20053;-69
2024/03/13 10:04:10;;;;;;;74.30;69.30;;;;;;;10.88;100.00;100523.34;5019035;28;20492;-69
2024/03/13 10:06:38;;;;;;;84.55;79.10;;;;;;;10.79;100.00;100521.97;5026529;28;20134;-69
2024/03/13 10:09:11;;;;;;;75.03;69.63;;;;;;;11.04;100.00;100511.38;5027449;28;20044;-70
2024/03/13 10:11:39;;;;;;;72.43;66.93;;;;;;;11.32;100.00;100520.84;5025342;28;20103;-69
2024/03/13 10:14:09;;;;;;;73.93;68.53;;;;;;;11.65;100.00;100512.63;5027782;28;20045;-69
2024/03/13 10:16:39;;;;;;;77.82;72.32;;;;;;;11.34;100.00;100508.94;5025427;28;20410;-69
2024/03/13 10:19:07;;;;;;;76.18;71.05;;;;;;;11.60;100.00;100505.28;5027280;28;20433;-70
2024/03/13 10:21:34;;;;;;;71.97;66.85;;;;;;;11.98;100.00;100508.84;5027723;28;20049;-68
2024/03/13 10:24:01;;;;;;;65.85;61.03;;;;;;;11.76;100.00;100495.09;5031882;28;20048;-71
2024/03/13 10:26:29;;;;;;;59.83;55.22;;;;;;;11.84;100.00;100500.16;5029406;28;20114;-69
2024/03/13 10:28:56;;;;;;;61.83;57.42;;;;;;;11.58;100.00;100501.19;5032513;28;20443;-69
2024/03/13 10:31:24;;;;;;;68.55;63.65;;;;;;;11.57;100.00;100496.91;5031625;28;20475;-69
2024/03/13 10:33:54;;;;;;;61.03;56.83;;;;;;;11.48;100.00;100490.25;5031561;28;20162;-69
2024/03/13 10:36:21;;;;;;;64.25;59.95;;;;;;;11.19;100.00;100493.31;5032268;28;20527;-69
2024/03/13 10:38:48;;;;;;;60.08;55.97;;;;;;;11.32;100.00;100484.44;5032494;28;20512;-69
2024/03/13 10:41:15;;;;;;;66.80;62.17;;;;;;;11.52;100.00;100481.59;5030633;28;20064;-69
2024/03/13 10:43:43;;;;;;;79.28;73.68;;;;;;;11.70;100.00;100483.50;5031058;28;20437;-72
2024/03/13 10:46:12;;;;;;;58.35;54.25;;;;;;;12.06;100.00;100480.09;5030094;28;20059;-71
2024/03/13 10:48:40;;;;;;;55.25;50.97;;;;;;;11.68;100.00;100477.59;5028124;28;20091;-69
2024/03/13 10:51:10;;;;;;;58.20;54.08;;;;;;;11.61;100.00;100479.47;5031619;28;20048;-70
2024/03/13 10:53:37;;;;;;;57.75;53.45;;;;;;;11.05;100.00;100472.38;5032908;28;20122;-71
2024/03/13 10:56:04;;;;;;;61.42;56.83;;;;;;;11.02;100.00;100467.47;5029106;28;20053;-70
2024/03/13 10:58:34;;;;;;;69.10;63.90;;;;;;;11.07;100.00;100467.63;5031432;28;20570;-70
2024/03/13 11:01:02;;;;;;;66.97;62.17;;;;;;;11.33;100.00;100467.44;5031302;28;20134;-70
2024/03/13 11:03:29;;;;;;;56.45;52.30;;;;;;;11.32;100.00;100473.81;5030587;28;20041;-71
2024/03/13 11:05:56;;;;;;;57.60;53.30;;;;;;;11.20;100.00;100470.22;5028831;28;20045;-70
2024/03/13 11:08:26;;;;;;;59.00;54.55;;;;;;;11.21;100.00;100469.16;5034160;28;20041;-71
2024/03/13 11:10:53;;;;;;;61.67;56.88;;;;;;;11.31;100.00;100469.50;5031617;28;20166;-71
2024/03/13 11:13:24;;;;;;;62.10;57.42;;;;;;;11.34;100.00;100470.91;5030982;28;20057;-71
2024/03/13 11:15:51;;;;;;;62.53;58.03;;;;;;;11.44;100.00;100464.09;5030729;28;20428;-70
2024/03/13 11:18:18;;;;;;;63.28;58.78;;;;;;;11.35;100.00;100465.38;5030542;28;20471;-70
2024/03/13 11:20:45;;;;;;;57.08;53.17;;;;;;;11.79;100.00;100458.22;5031967;28;20126;-70
2024/03/13 11:23:13;;;;;;;56.53;52.35;;;;;;;11.97;100.00;100461.97;5030739;28;20060;-71
2024/03/13 11:25:40;;;;;;;48.75;45.35;;;;;;;12.18;100.00;100455.41;5030769;28;20512;-70
2024/03/13 11:28:07;;;;;;;47.75;44.45;;;;;;;12.05;100.00;100453.72;5029066;28;20084;-71